sensor_id;sensor_type;location;lat;lon;timestamp;P1;durP1;ratioP1;P2;durP2;ratioP2
9280;SDS011;4679;47.966;7.958;2022-09-03T07:06:17;0.90;;;0.90;;
9280;SDS011;4679;47.966;7.958;2022-09-03T07:08:20;1.53;;;1.17;;
9280;SDS011;4679;47.966;7.958;2022-09-03T07:10:22;0.80;;;0.80;;
9280;SDS011;4679;47.966;7.958;2022-09-03T07:12:25;0.90;;;0.90;;
9280;SDS011;4679;47.966;7.958;2022-09-03T07:14:27;1.10;;;1.00;;
9280;SDS011;4679;47.966;7.958;2022-09-03T07:16:29;0.97;;;0.97;;
9280;SDS011;4679;47.966;7.958;2022-09-03T07:20:40;1.17;;;1.00;;
9280;SDS011;4679;47.966;7.958;2022-09-03T07:22:43;1.20;;;1.10;;
9280;SDS011;4679;47.966;7.958;2022-09-03T07:24:44;1.53;;;1.13;;
9280;SDS011;4679;47.966;7.958;2022-09-03T07:26:46;1.20;;;1.10;;
9280;SDS011;4679;47.966;7.958;2022-09-03T07:28:48;1.03;;;1.03;;
9280;SDS011;4679;47.966;7.958;2022-09-03T07:30:51;1.00;;;1.00;;
9280;SDS011;4679;47.966;7.958;2022-09-03T07:32:53;1.23;;;1.10;;
9280;SDS011;4679;47.966;7.958;2022-09-03T07:34:55;1.20;;;1.10;;
9280;SDS011;4679;47.966;7.958;2022-09-03T07:36:57;1.20;;;1.10;;
9280;SDS011;4679;47.966;7.958;2022-09-03T07:39:00;2.20;;;1.20;;
9280;SDS011;4679;47.966;7.958;2022-09-03T07:41:04;1.00;;;1.00;;
9280;SDS011;4679;47.966;7.958;2022-09-03T07:43:07;1.17;;;0.90;;
9280;SDS011;4679;47.966;7.958;2022-09-03T07:45:09;1.30;;;0.90;;
9280;SDS011;4679;47.966;7.958;2022-09-03T07:47:11;0.90;;;0.90;;
9280;SDS011;4679;47.966;7.958;2022-09-03T07:49:14;1.20;;;1.10;;
9280;SDS011;4679;47.966;7.958;2022-09-03T07:51:16;0.77;;;0.77;;
9280;SDS011;4679;47.966;7.958;2022-09-03T07:53:18;0.73;;;0.73;;
9280;SDS011;4679;47.966;7.958;2022-09-03T07:55:22;0.60;;;0.60;;
9280;SDS011;4679;47.966;7.958;2022-09-03T07:57:24;0.77;;;0.77;;
9280;SDS011;4679;47.966;7.958;2022-09-03T07:59:26;1.27;;;1.10;;
9280;SDS011;4679;47.966;7.958;2022-09-03T08:01:28;1.23;;;0.70;;
9280;SDS011;4679;47.966;7.958;2022-09-03T08:03:31;1.37;;;0.80;;
9280;SDS011;4679;47.966;7.958;2022-09-03T08:05:34;0.70;;;0.70;;
9280;SDS011;4679;47.966;7.958;2022-09-03T08:07:37;0.80;;;0.80;;
9280;SDS011;4679;47.966;7.958;2022-09-03T08:09:38;1.60;;;0.80;;
9280;SDS011;4679;47.966;7.958;2022-09-03T08:11:42;0.87;;;0.80;;
9280;SDS011;4679;47.966;7.958;2022-09-03T08:13:44;1.43;;;1.00;;
9280;SDS011;4679;47.966;7.958;2022-09-03T08:15:52;1.20;;;0.60;;
9280;SDS011;4679;47.966;7.958;2022-09-03T08:17:54;0.97;;;0.80;;
9280;SDS011;4679;47.966;7.958;2022-09-03T08:19:56;0.73;;;0.73;;
9280;SDS011;4679;47.966;7.958;2022-09-03T08:21:58;0.73;;;0.73;;
9280;SDS011;4679;47.966;7.958;2022-09-03T08:24:00;0.67;;;0.67;;
9280;SDS011;4679;47.966;7.958;2022-09-03T08:26:02;0.60;;;0.60;;
9280;SDS011;4679;47.966;7.958;2022-09-03T08:28:06;0.80;;;0.80;;
9280;SDS011;4679;47.966;7.958;2022-09-03T08:30:08;1.80;;;0.80;;
9280;SDS011;4679;47.966;7.958;2022-09-03T08:32:11;1.37;;;0.80;;
9280;SDS011;4679;47.966;7.958;2022-09-03T08:34:13;0.70;;;0.70;;
9280;SDS011;4679;47.966;7.958;2022-09-03T08:36:17;0.70;;;0.70;;
9280;SDS011;4679;47.966;7.958;2022-09-03T08:38:21;0.77;;;0.77;;
9280;SDS011;4679;47.966;7.958;2022-09-03T08:40:24;0.80;;;0.80;;
9280;SDS011;4679;47.966;7.958;2022-09-03T08:42:32;0.93;;;0.93;;
9280;SDS011;4679;47.966;7.958;2022-09-03T08:44:47;0.90;;;0.80;;
9280;SDS011;4679;47.966;7.958;2022-09-03T08:46:50;1.40;;;0.80;;
9280;SDS011;4679;47.966;7.958;2022-09-03T08:48:57;0.90;;;0.80;;
9280;SDS011;4679;47.966;7.958;2022-09-03T08:51:00;1.37;;;1.00;;
9280;SDS011;4679;47.966;7.958;2022-09-03T08:53:05;1.07;;;0.97;;
9280;SDS011;4679;47.966;7.958;2022-09-03T08:55:19;1.17;;;1.07;;
9280;SDS011;4679;47.966;7.958;2022-09-03T08:57:25;0.90;;;0.90;;
9280;SDS011;4679;47.966;7.958;2022-09-03T08:59:28;1.13;;;0.80;;
9280;SDS011;4679;47.966;7.958;2022-09-03T09:01:34;2.10;;;0.90;;
9280;SDS011;4679;47.966;7.958;2022-09-03T09:03:47;0.83;;;0.83;;
9280;SDS011;4679;47.966;7.958;2022-09-03T09:05:54;3.03;;;1.00;;
9280;SDS011;4679;47.966;7.958;2022-09-03T09:08:07;1.03;;;0.90;;
9280;SDS011;4679;47.966;7.958;2022-09-03T09:10:19;2.53;;;1.17;;
9280;SDS011;4679;47.966;7.958;2022-09-03T09:12:32;1.30;;;1.00;;
9280;SDS011;4679;47.966;7.958;2022-09-03T09:14:42;0.73;;;0.73;;
9280;SDS011;4679;47.966;7.958;2022-09-03T09:16:54;1.63;;;1.30;;
9280;SDS011;4679;47.966;7.958;2022-09-03T09:19:08;1.07;;;1.07;;
9280;SDS011;4679;47.966;7.958;2022-09-03T09:21:19;0.90;;;0.90;;
9280;SDS011;4679;47.966;7.958;2022-09-03T09:23:29;0.70;;;0.70;;
9280;SDS011;4679;47.966;7.958;2022-09-03T09:25:42;0.80;;;0.80;;
9280;SDS011;4679;47.966;7.958;2022-09-03T09:27:50;3.23;;;1.00;;
9280;SDS011;4679;47.966;7.958;2022-09-03T09:29:52;1.63;;;1.00;;
9280;SDS011;4679;47.966;7.958;2022-09-03T09:31:56;1.67;;;1.07;;
9280;SDS011;4679;47.966;7.958;2022-09-03T09:34:00;1.50;;;1.20;;
9280;SDS011;4679;47.966;7.958;2022-09-03T09:36:07;1.57;;;1.30;;
9280;SDS011;4679;47.966;7.958;2022-09-03T09:38:14;1.87;;;1.37;;
9280;SDS011;4679;47.966;7.958;2022-09-03T09:40:26;2.30;;;1.10;;
9280;SDS011;4679;47.966;7.958;2022-09-03T09:42:33;2.20;;;1.63;;
9280;SDS011;4679;47.966;7.958;2022-09-03T09:44:34;4.03;;;1.50;;
9280;SDS011;4679;47.966;7.958;2022-09-03T09:46:37;2.63;;;1.40;;
9280;SDS011;4679;47.966;7.958;2022-09-03T09:48:48;3.63;;;1.30;;
9280;SDS011;4679;47.966;7.958;2022-09-03T09:51:01;5.13;;;1.57;;
9280;SDS011;4679;47.966;7.958;2022-09-03T09:53:06;3.60;;;1.57;;
9280;SDS011;4679;47.966;7.958;2022-09-03T09:55:14;6.03;;;1.43;;
9280;SDS011;4679;47.966;7.958;2022-09-03T09:57:21;1.50;;;1.40;;
9280;SDS011;4679;47.966;7.958;2022-09-03T09:59:23;3.17;;;1.50;;
9280;SDS011;4679;47.966;7.958;2022-09-03T10:01:25;3.33;;;1.40;;
9280;SDS011;4679;47.966;7.958;2022-09-03T10:03:32;1.30;;;1.20;;
9280;SDS011;4679;47.966;7.958;2022-09-03T10:05:36;2.43;;;1.33;;
9280;SDS011;4679;47.966;7.958;2022-09-03T10:07:39;1.77;;;1.67;;
9280;SDS011;4679;47.966;7.958;2022-09-03T10:09:41;1.83;;;1.43;;
9280;SDS011;4679;47.966;7.958;2022-09-03T10:11:43;1.80;;;1.70;;
9280;SDS011;4679;47.966;7.958;2022-09-03T10:13:49;1.50;;;1.40;;
9280;SDS011;4679;47.966;7.958;2022-09-03T10:15:54;2.63;;;1.47;;
9280;SDS011;4679;47.966;7.958;2022-09-03T10:18:02;2.20;;;1.47;;
9280;SDS011;4679;47.966;7.958;2022-09-03T10:20:10;2.90;;;1.63;;
9280;SDS011;4679;47.966;7.958;2022-09-03T10:22:35;1.73;;;1.30;;
9280;SDS011;4679;47.966;7.958;2022-09-03T10:24:46;2.33;;;1.53;;
9280;SDS011;4679;47.966;7.958;2022-09-03T10:26:55;3.30;;;1.70;;
9280;SDS011;4679;47.966;7.958;2022-09-03T10:28:58;1.77;;;1.40;;
9280;SDS011;4679;47.966;7.958;2022-09-03T10:31:04;1.47;;;1.30;;
9280;SDS011;4679;47.966;7.958;2022-09-03T10:33:21;2.20;;;1.30;;
9280;SDS011;4679;47.966;7.958;2022-09-03T10:35:28;1.50;;;1.20;;
9280;SDS011;4679;47.966;7.958;2022-09-03T10:37:33;1.60;;;1.50;;
9280;SDS011;4679;47.966;7.958;2022-09-03T10:39:46;4.50;;;1.50;;
9280;SDS011;4679;47.966;7.958;2022-09-03T10:42:04;1.40;;;1.23;;
9280;SDS011;4679;47.966;7.958;2022-09-03T10:44:23;2.63;;;1.70;;
9280;SDS011;4679;47.966;7.958;2022-09-03T10:46:35;1.47;;;1.23;;
9280;SDS011;4679;47.966;7.958;2022-09-03T10:48:59;1.37;;;0.90;;
9280;SDS011;4679;47.966;7.958;2022-09-03T10:51:13;1.53;;;0.90;;
9280;SDS011;4679;47.966;7.958;2022-09-03T10:53:23;1.60;;;0.90;;
9280;SDS011;4679;47.966;7.958;2022-09-03T10:55:38;1.17;;;0.60;;
9280;SDS011;4679;47.966;7.958;2022-09-03T10:59:30;1.67;;;0.80;;
9280;SDS011;4679;47.966;7.958;2022-09-03T11:01:40;0.87;;;0.87;;
9280;SDS011;4679;47.966;7.958;2022-09-03T11:03:50;1.03;;;0.80;;
9280;SDS011;4679;47.966;7.958;2022-09-03T11:06:05;1.57;;;0.73;;
9280;SDS011;4679;47.966;7.958;2022-09-03T11:08:14;0.60;;;0.60;;
9280;SDS011;4679;47.966;7.958;2022-09-03T11:10:23;0.67;;;0.67;;
9280;SDS011;4679;47.966;7.958;2022-09-03T11:12:28;1.17;;;0.70;;
9280;SDS011;4679;47.966;7.958;2022-09-03T11:14:37;1.17;;;0.50;;
9280;SDS011;4679;47.966;7.958;2022-09-03T11:16:45;0.60;;;0.60;;
9280;SDS011;4679;47.966;7.958;2022-09-03T11:18:54;0.67;;;0.67;;
9280;SDS011;4679;47.966;7.958;2022-09-03T11:21:00;0.97;;;0.70;;
9280;SDS011;4679;47.966;7.958;2022-09-03T11:23:05;0.60;;;0.60;;
9280;SDS011;4679;47.966;7.958;2022-09-03T11:25:12;0.50;;;0.50;;
9280;SDS011;4679;47.966;7.958;2022-09-03T11:27:19;1.33;;;0.60;;
9280;SDS011;4679;47.966;7.958;2022-09-03T11:29:31;0.60;;;0.60;;
9280;SDS011;4679;47.966;7.958;2022-09-03T11:31:44;2.00;;;0.70;;
9280;SDS011;4679;47.966;7.958;2022-09-03T11:33:57;0.63;;;0.63;;
9280;SDS011;4679;47.966;7.958;2022-09-03T11:36:05;0.60;;;0.60;;
9280;SDS011;4679;47.966;7.958;2022-09-03T11:38:07;1.27;;;0.67;;
9280;SDS011;4679;47.966;7.958;2022-09-03T11:40:27;0.60;;;0.60;;
9280;SDS011;4679;47.966;7.958;2022-09-03T11:42:33;0.70;;;0.60;;
9280;SDS011;4679;47.966;7.958;2022-09-03T11:44:37;0.97;;;0.70;;
9280;SDS011;4679;47.966;7.958;2022-09-03T11:46:40;0.50;;;0.50;;
9280;SDS011;4679;47.966;7.958;2022-09-03T11:48:55;0.60;;;0.60;;
9280;SDS011;4679;47.966;7.958;2022-09-03T11:51:19;1.07;;;0.70;;
9280;SDS011;4679;47.966;7.958;2022-09-03T11:53:34;0.60;;;0.60;;
9280;SDS011;4679;47.966;7.958;2022-09-03T11:55:47;0.50;;;0.50;;
9280;SDS011;4679;47.966;7.958;2022-09-03T11:57:53;0.43;;;0.43;;
9280;SDS011;4679;47.966;7.958;2022-09-03T12:00:05;1.10;;;0.33;;
9280;SDS011;4679;47.966;7.958;2022-09-03T12:02:22;0.50;;;0.50;;
9280;SDS011;4679;47.966;7.958;2022-09-03T12:04:29;1.43;;;0.50;;
9280;SDS011;4679;47.966;7.958;2022-09-03T12:06:46;0.40;;;0.30;;
9280;SDS011;4679;47.966;7.958;2022-09-03T12:09:06;0.37;;;0.37;;
9280;SDS011;4679;47.966;7.958;2022-09-03T12:11:23;0.30;;;0.30;;
9280;SDS011;4679;47.966;7.958;2022-09-03T12:13:38;0.30;;;0.30;;
9280;SDS011;4679;47.966;7.958;2022-09-03T12:18:39;0.20;;;0.20;;
9280;SDS011;4679;47.966;7.958;2022-09-03T12:20:42;1.03;;;0.30;;
9280;SDS011;4679;47.966;7.958;2022-09-03T12:22:45;0.20;;;0.20;;
9280;SDS011;4679;47.966;7.958;2022-09-03T12:24:46;1.47;;;0.30;;
9280;SDS011;4679;47.966;7.958;2022-09-03T12:26:49;0.30;;;0.30;;
9280;SDS011;4679;47.966;7.958;2022-09-03T12:28:52;0.30;;;0.30;;
9280;SDS011;4679;47.966;7.958;2022-09-03T12:31:04;0.30;;;0.30;;
9280;SDS011;4679;47.966;7.958;2022-09-03T12:33:20;0.20;;;0.20;;
9280;SDS011;4679;47.966;7.958;2022-09-03T12:35:24;0.20;;;0.20;;
9280;SDS011;4679;47.966;7.958;2022-09-03T12:37:31;0.22;;;0.22;;
9280;SDS011;4679;47.966;7.958;2022-09-03T12:39:35;0.30;;;0.30;;
9280;SDS011;4679;47.966;7.958;2022-09-03T12:41:37;0.40;;;0.40;;
9280;SDS011;4679;47.966;7.958;2022-09-03T12:43:39;1.85;;;0.30;;
9280;SDS011;4679;47.966;7.958;2022-09-03T12:45:41;0.30;;;0.30;;
9280;SDS011;4679;47.966;7.958;2022-09-03T12:47:45;0.20;;;0.20;;
9280;SDS011;4679;47.966;7.958;2022-09-03T12:49:47;0.32;;;0.30;;
9280;SDS011;4679;47.966;7.958;2022-09-03T12:51:56;0.77;;;0.30;;
9280;SDS011;4679;47.966;7.958;2022-09-03T12:54:01;1.92;;;0.30;;
9280;SDS011;4679;47.966;7.958;2022-09-03T12:56:07;0.30;;;0.30;;
9280;SDS011;4679;47.966;7.958;2022-09-03T12:58:11;0.30;;;0.30;;
9280;SDS011;4679;47.966;7.958;2022-09-03T13:00:26;0.25;;;0.25;;
9280;SDS011;4679;47.966;7.958;2022-09-03T13:02:34;0.30;;;0.30;;
9280;SDS011;4679;47.966;7.958;2022-09-03T13:04:40;0.30;;;0.30;;
9280;SDS011;4679;47.966;7.958;2022-09-03T13:06:45;0.30;;;0.30;;
9280;SDS011;4679;47.966;7.958;2022-09-03T13:08:53;0.32;;;0.30;;
9280;SDS011;4679;47.966;7.958;2022-09-03T13:11:00;1.17;;;0.30;;
9280;SDS011;4679;47.966;7.958;2022-09-03T13:13:06;0.20;;;0.20;;
9280;SDS011;4679;47.966;7.958;2022-09-03T13:15:22;0.20;;;0.20;;
9280;SDS011;4679;47.966;7.958;2022-09-03T13:17:29;0.38;;;0.35;;
9280;SDS011;4679;47.966;7.958;2022-09-03T13:19:48;1.40;;;0.30;;
9280;SDS011;4679;47.966;7.958;2022-09-03T13:22:00;0.20;;;0.20;;
9280;SDS011;4679;47.966;7.958;2022-09-03T13:24:16;0.20;;;0.20;;
9280;SDS011;4679;47.966;7.958;2022-09-03T13:26:31;0.93;;;0.22;;
9280;SDS011;4679;47.966;7.958;2022-09-03T13:28:43;0.30;;;0.30;;
9280;SDS011;4679;47.966;7.958;2022-09-03T13:30:59;0.35;;;0.35;;
9280;SDS011;4679;47.966;7.958;2022-09-03T13:33:13;0.20;;;0.20;;
9280;SDS011;4679;47.966;7.958;2022-09-03T13:35:25;0.20;;;0.20;;
9280;SDS011;4679;47.966;7.958;2022-09-03T13:37:31;0.30;;;0.30;;
9280;SDS011;4679;47.966;7.958;2022-09-03T13:39:40;1.25;;;0.20;;
9280;SDS011;4679;47.966;7.958;2022-09-03T13:41:52;1.00;;;0.30;;
9280;SDS011;4679;47.966;7.958;2022-09-03T13:43:59;0.20;;;0.20;;
9280;SDS011;4679;47.966;7.958;2022-09-03T13:46:05;0.88;;;0.30;;
9280;SDS011;4679;47.966;7.958;2022-09-03T13:48:09;0.30;;;0.30;;
9280;SDS011;4679;47.966;7.958;2022-09-03T13:50:36;0.38;;;0.20;;
9280;SDS011;4679;47.966;7.958;2022-09-03T13:52:44;0.63;;;0.30;;
9280;SDS011;4679;47.966;7.958;2022-09-03T13:54:54;0.13;;;0.13;;
9280;SDS011;4679;47.966;7.958;2022-09-03T13:57:03;0.25;;;0.20;;
9280;SDS011;4679;47.966;7.958;2022-09-03T13:59:09;0.20;;;0.20;;
9280;SDS011;4679;47.966;7.958;2022-09-03T14:01:20;0.25;;;0.25;;
9280;SDS011;4679;47.966;7.958;2022-09-03T14:03:29;0.20;;;0.20;;
9280;SDS011;4679;47.966;7.958;2022-09-03T14:05:37;0.20;;;0.20;;
9280;SDS011;4679;47.966;7.958;2022-09-03T14:07:51;0.40;;;0.20;;
9280;SDS011;4679;47.966;7.958;2022-09-03T14:10:05;0.20;;;0.20;;
9280;SDS011;4679;47.966;7.958;2022-09-03T14:12:20;0.20;;;0.20;;
9280;SDS011;4679;47.966;7.958;2022-09-03T14:14:33;0.20;;;0.20;;
9280;SDS011;4679;47.966;7.958;2022-09-03T14:16:42;0.20;;;0.20;;
9280;SDS011;4679;47.966;7.958;2022-09-03T14:18:50;0.20;;;0.20;;
9280;SDS011;4679;47.966;7.958;2022-09-03T14:20:58;0.20;;;0.20;;
9280;SDS011;4679;47.966;7.958;2022-09-03T14:23:04;0.28;;;0.20;;
9280;SDS011;4679;47.966;7.958;2022-09-03T14:25:12;0.20;;;0.20;;
9280;SDS011;4679;47.966;7.958;2022-09-03T14:27:22;0.20;;;0.20;;
9280;SDS011;4679;47.966;7.958;2022-09-03T14:29:27;0.43;;;0.30;;
9280;SDS011;4679;47.966;7.958;2022-09-03T14:31:46;0.20;;;0.20;;
9280;SDS011;4679;47.966;7.958;2022-09-03T14:34:07;0.20;;;0.20;;
9280;SDS011;4679;47.966;7.958;2022-09-03T14:36:17;0.10;;;0.10;;
9280;SDS011;4679;47.966;7.958;2022-09-03T14:38:30;0.30;;;0.30;;
9280;SDS011;4679;47.966;7.958;2022-09-03T14:40:53;0.20;;;0.20;;
9280;SDS011;4679;47.966;7.958;2022-09-03T14:43:05;0.28;;;0.28;;
9280;SDS011;4679;47.966;7.958;2022-09-03T14:45:23;0.20;;;0.20;;
9280;SDS011;4679;47.966;7.958;2022-09-03T14:47:34;0.22;;;0.20;;
9280;SDS011;4679;47.966;7.958;2022-09-03T14:52:32;0.77;;;0.20;;
9280;SDS011;4679;47.966;7.958;2022-09-03T14:54:51;0.20;;;0.20;;
9280;SDS011;4679;47.966;7.958;2022-09-03T14:57:10;0.30;;;0.30;;
9280;SDS011;4679;47.966;7.958;2022-09-03T14:59:36;0.25;;;0.25;;
9280;SDS011;4679;47.966;7.958;2022-09-03T15:01:45;0.85;;;0.28;;
9280;SDS011;4679;47.966;7.958;2022-09-03T15:06:38;0.68;;;0.30;;
9280;SDS011;4679;47.966;7.958;2022-09-03T15:09:01;0.22;;;0.22;;
9280;SDS011;4679;47.966;7.958;2022-09-03T15:11:18;0.20;;;0.20;;
9280;SDS011;4679;47.966;7.958;2022-09-03T15:13:24;0.40;;;0.38;;
9280;SDS011;4679;47.966;7.958;2022-09-03T15:15:29;0.45;;;0.30;;
9280;SDS011;4679;47.966;7.958;2022-09-03T15:20:06;0.30;;;0.30;;
9280;SDS011;4679;47.966;7.958;2022-09-03T15:22:20;0.30;;;0.30;;
9280;SDS011;4679;47.966;7.958;2022-09-03T15:24:37;0.40;;;0.40;;
9280;SDS011;4679;47.966;7.958;2022-09-03T15:26:54;0.40;;;0.40;;
9280;SDS011;4679;47.966;7.958;2022-09-03T15:29:16;0.45;;;0.45;;
9280;SDS011;4679;47.966;7.958;2022-09-03T15:31:41;0.30;;;0.30;;
9280;SDS011;4679;47.966;7.958;2022-09-03T15:33:49;0.93;;;0.40;;
9280;SDS011;4679;47.966;7.958;2022-09-03T15:36:02;0.32;;;0.32;;
9280;SDS011;4679;47.966;7.958;2022-09-03T15:38:18;0.30;;;0.30;;
9280;SDS011;4679;47.966;7.958;2022-09-03T15:40:26;1.30;;;0.40;;
9280;SDS011;4679;47.966;7.958;2022-09-03T15:42:29;0.40;;;0.40;;
9280;SDS011;4679;47.966;7.958;2022-09-03T15:44:35;0.40;;;0.40;;
9280;SDS011;4679;47.966;7.958;2022-09-03T15:46:47;0.40;;;0.40;;
9280;SDS011;4679;47.966;7.958;2022-09-03T15:48:55;0.85;;;0.50;;
9280;SDS011;4679;47.966;7.958;2022-09-03T15:51:04;0.70;;;0.40;;
9280;SDS011;4679;47.966;7.958;2022-09-03T15:53:14;0.57;;;0.40;;
9280;SDS011;4679;47.966;7.958;2022-09-03T15:55:29;0.65;;;0.50;;
9280;SDS011;4679;47.966;7.958;2022-09-03T15:57:37;0.57;;;0.50;;
9280;SDS011;4679;47.966;7.958;2022-09-03T15:59:48;0.80;;;0.50;;
9280;SDS011;4679;47.966;7.958;2022-09-03T16:01:55;0.80;;;0.50;;
9280;SDS011;4679;47.966;7.958;2022-09-03T16:04:06;0.50;;;0.50;;
9280;SDS011;4679;47.966;7.958;2022-09-03T16:06:19;0.52;;;0.50;;
9280;SDS011;4679;47.966;7.958;2022-09-03T16:08:31;0.40;;;0.40;;
9280;SDS011;4679;47.966;7.958;2022-09-03T16:10:52;0.50;;;0.50;;
9280;SDS011;4679;47.966;7.958;2022-09-03T16:13:02;0.65;;;0.65;;
9280;SDS011;4679;47.966;7.958;2022-09-03T16:15:16;0.40;;;0.40;;
9280;SDS011;4679;47.966;7.958;2022-09-03T16:17:25;1.65;;;0.60;;
9280;SDS011;4679;47.966;7.958;2022-09-03T16:19:34;1.02;;;0.60;;
9280;SDS011;4679;47.966;7.958;2022-09-03T16:21:45;0.55;;;0.55;;
9280;SDS011;4679;47.966;7.958;2022-09-03T16:23:53;1.30;;;0.40;;
9280;SDS011;4679;47.966;7.958;2022-09-03T16:25:59;0.57;;;0.57;;
9280;SDS011;4679;47.966;7.958;2022-09-03T16:28:05;0.50;;;0.50;;
9280;SDS011;4679;47.966;7.958;2022-09-03T16:30:11;0.75;;;0.75;;
9280;SDS011;4679;47.966;7.958;2022-09-03T16:32:26;0.60;;;0.60;;
9280;SDS011;4679;47.966;7.958;2022-09-03T16:34:38;0.50;;;0.50;;
9280;SDS011;4679;47.966;7.958;2022-09-03T16:36:51;0.60;;;0.60;;
9280;SDS011;4679;47.966;7.958;2022-09-03T16:39:02;0.60;;;0.52;;
9280;SDS011;4679;47.966;7.958;2022-09-03T16:41:15;0.50;;;0.50;;
9280;SDS011;4679;47.966;7.958;2022-09-03T16:43:26;0.50;;;0.50;;
9280;SDS011;4679;47.966;7.958;2022-09-03T16:45:35;0.93;;;0.50;;
9280;SDS011;4679;47.966;7.958;2022-09-03T16:47:48;1.55;;;0.50;;
9280;SDS011;4679;47.966;7.958;2022-09-03T16:50:07;1.58;;;0.60;;
9280;SDS011;4679;47.966;7.958;2022-09-03T16:52:23;0.70;;;0.70;;
9280;SDS011;4679;47.966;7.958;2022-09-03T16:54:40;1.58;;;0.63;;
9280;SDS011;4679;47.966;7.958;2022-09-03T16:56:54;0.90;;;0.80;;
9280;SDS011;4679;47.966;7.958;2022-09-03T16:59:04;1.15;;;0.70;;
9280;SDS011;4679;47.966;7.958;2022-09-03T17:01:19;0.63;;;0.63;;
9280;SDS011;4679;47.966;7.958;2022-09-03T17:03:44;0.55;;;0.40;;
9280;SDS011;4679;47.966;7.958;2022-09-03T17:06:00;1.38;;;0.70;;
9280;SDS011;4679;47.966;7.958;2022-09-03T17:08:15;1.17;;;0.60;;
9280;SDS011;4679;47.966;7.958;2022-09-03T17:10:26;0.80;;;0.60;;
9280;SDS011;4679;47.966;7.958;2022-09-03T17:12:36;1.10;;;0.65;;
9280;SDS011;4679;47.966;7.958;2022-09-03T17:17:25;0.77;;;0.50;;
9280;SDS011;4679;47.966;7.958;2022-09-03T17:19:43;1.65;;;0.60;;
9280;SDS011;4679;47.966;7.958;2022-09-03T17:21:55;0.60;;;0.60;;
9280;SDS011;4679;47.966;7.958;2022-09-03T17:24:15;1.27;;;0.60;;
9280;SDS011;4679;47.966;7.958;2022-09-03T17:26:33;1.55;;;0.65;;
9280;SDS011;4679;47.966;7.958;2022-09-03T17:28:50;0.60;;;0.60;;
9280;SDS011;4679;47.966;7.958;2022-09-03T17:31:04;0.60;;;0.60;;
9280;SDS011;4679;47.966;7.958;2022-09-03T17:33:23;0.50;;;0.50;;
9280;SDS011;4679;47.966;7.958;2022-09-03T17:35:39;0.70;;;0.60;;
9280;SDS011;4679;47.966;7.958;2022-09-03T17:37:54;1.60;;;0.60;;
9280;SDS011;4679;47.966;7.958;2022-09-03T17:40:19;0.60;;;0.55;;
9280;SDS011;4679;47.966;7.958;2022-09-03T17:42:29;0.73;;;0.52;;
9280;SDS011;4679;47.966;7.958;2022-09-03T17:44:44;2.05;;;0.70;;
9280;SDS011;4679;47.966;7.958;2022-09-03T17:46:54;0.67;;;0.67;;
9280;SDS011;4679;47.966;7.958;2022-09-03T17:49:07;1.63;;;0.60;;
9280;SDS011;4679;47.966;7.958;2022-09-03T17:51:25;0.83;;;0.50;;
9280;SDS011;4679;47.966;7.958;2022-09-03T17:53:35;2.57;;;0.70;;
9280;SDS011;4679;47.966;7.958;2022-09-03T17:55:49;0.77;;;0.57;;
9280;SDS011;4679;47.966;7.958;2022-09-03T17:57:56;0.95;;;0.60;;
9280;SDS011;4679;47.966;7.958;2022-09-03T18:00:05;0.65;;;0.55;;
9280;SDS011;4679;47.966;7.958;2022-09-03T18:02:11;1.70;;;0.50;;
9280;SDS011;4679;47.966;7.958;2022-09-03T18:04:28;0.60;;;0.60;;
9280;SDS011;4679;47.966;7.958;2022-09-03T18:06:44;0.50;;;0.50;;
9280;SDS011;4679;47.966;7.958;2022-09-03T18:08:56;0.63;;;0.50;;
9280;SDS011;4679;47.966;7.958;2022-09-03T18:11:04;1.03;;;0.50;;
9280;SDS011;4679;47.966;7.958;2022-09-03T18:13:10;2.03;;;0.90;;
9280;SDS011;4679;47.966;7.958;2022-09-03T18:15:21;1.17;;;0.90;;
9280;SDS011;4679;47.966;7.958;2022-09-03T18:17:30;2.23;;;0.80;;
9280;SDS011;4679;47.966;7.958;2022-09-03T18:19:38;1.90;;;0.80;;
9280;SDS011;4679;47.966;7.958;2022-09-03T18:22:04;0.87;;;0.87;;
9280;SDS011;4679;47.966;7.958;2022-09-03T18:24:27;1.60;;;1.10;;
9280;SDS011;4679;47.966;7.958;2022-09-03T18:26:49;1.37;;;1.10;;
9280;SDS011;4679;47.966;7.958;2022-09-03T18:29:15;2.37;;;1.20;;
9280;SDS011;4679;47.966;7.958;2022-09-03T18:31:49;1.20;;;0.80;;
9280;SDS011;4679;47.966;7.958;2022-09-03T18:34:08;1.20;;;1.10;;
9280;SDS011;4679;47.966;7.958;2022-09-03T18:36:28;1.57;;;1.00;;
9280;SDS011;4679;47.966;7.958;2022-09-03T18:38:51;1.27;;;0.97;;
9280;SDS011;4679;47.966;7.958;2022-09-03T18:41:18;1.07;;;1.00;;
9280;SDS011;4679;47.966;7.958;2022-09-03T18:43:55;1.80;;;1.00;;
9280;SDS011;4679;47.966;7.958;2022-09-03T18:46:23;1.50;;;1.00;;
9280;SDS011;4679;47.966;7.958;2022-09-03T18:48:52;2.90;;;0.80;;
9280;SDS011;4679;47.966;7.958;2022-09-03T18:51:23;0.90;;;0.90;;
9280;SDS011;4679;47.966;7.958;2022-09-03T18:53:52;1.60;;;0.80;;
9280;SDS011;4679;47.966;7.958;2022-09-03T18:56:24;2.57;;;0.90;;
9280;SDS011;4679;47.966;7.958;2022-09-03T18:58:52;1.40;;;1.00;;
9280;SDS011;4679;47.966;7.958;2022-09-03T19:01:25;0.90;;;0.70;;
9280;SDS011;4679;47.966;7.958;2022-09-03T19:03:56;2.10;;;0.83;;
9280;SDS011;4679;47.966;7.958;2022-09-03T19:06:25;1.33;;;0.70;;
9280;SDS011;4679;47.966;7.958;2022-09-03T19:08:56;1.57;;;1.00;;
9280;SDS011;4679;47.966;7.958;2022-09-03T19:11:25;3.80;;;1.83;;
9280;SDS011;4679;47.966;7.958;2022-09-03T19:13:47;1.23;;;0.90;;
9280;SDS011;4679;47.966;7.958;2022-09-03T19:16:07;2.30;;;1.03;;
9280;SDS011;4679;47.966;7.958;2022-09-03T19:18:35;0.90;;;0.80;;
9280;SDS011;4679;47.966;7.958;2022-09-03T19:21:16;0.70;;;0.70;;
9280;SDS011;4679;47.966;7.958;2022-09-03T19:23:40;0.80;;;0.80;;
9280;SDS011;4679;47.966;7.958;2022-09-03T19:26:02;0.87;;;0.80;;
9280;SDS011;4679;47.966;7.958;2022-09-03T19:28:29;2.57;;;0.90;;
9280;SDS011;4679;47.966;7.958;2022-09-03T19:30:52;1.03;;;0.90;;
9280;SDS011;4679;47.966;7.958;2022-09-03T19:33:24;1.27;;;0.70;;
9280;SDS011;4679;47.966;7.958;2022-09-03T19:35:53;2.50;;;0.90;;
9280;SDS011;4679;47.966;7.958;2022-09-03T19:38:27;0.80;;;0.80;;
9280;SDS011;4679;47.966;7.958;2022-09-03T19:41:00;1.80;;;0.80;;
9280;SDS011;4679;47.966;7.958;2022-09-03T19:43:33;0.80;;;0.80;;
9280;SDS011;4679;47.966;7.958;2022-09-03T19:46:07;0.87;;;0.70;;
9280;SDS011;4679;47.966;7.958;2022-09-03T19:48:39;0.90;;;0.90;;
9280;SDS011;4679;47.966;7.958;2022-09-03T19:51:08;0.70;;;0.70;;
9280;SDS011;4679;47.966;7.958;2022-09-03T19:53:33;0.70;;;0.70;;
9280;SDS011;4679;47.966;7.958;2022-09-03T19:55:53;3.90;;;1.00;;
9280;SDS011;4679;47.966;7.958;2022-09-03T19:58:16;0.80;;;0.80;;
9280;SDS011;4679;47.966;7.958;2022-09-03T20:00:39;1.90;;;0.60;;
9280;SDS011;4679;47.966;7.958;2022-09-03T20:02:59;0.93;;;0.90;;
9280;SDS011;4679;47.966;7.958;2022-09-03T20:05:20;0.90;;;0.90;;
9280;SDS011;4679;47.966;7.958;2022-09-03T20:07:40;2.00;;;0.90;;
9280;SDS011;4679;47.966;7.958;2022-09-03T20:10:00;1.33;;;0.73;;
9280;SDS011;4679;47.966;7.958;2022-09-03T20:12:22;2.30;;;0.90;;
9280;SDS011;4679;47.966;7.958;2022-09-03T20:14:29;1.50;;;1.17;;
9280;SDS011;4679;47.966;7.958;2022-09-03T20:16:34;1.40;;;1.00;;
9280;SDS011;4679;47.966;7.958;2022-09-03T20:18:45;1.67;;;0.97;;
9280;SDS011;4679;47.966;7.958;2022-09-03T20:20:53;2.67;;;1.30;;
9280;SDS011;4679;47.966;7.958;2022-09-03T20:23:03;1.43;;;1.10;;
9280;SDS011;4679;47.966;7.958;2022-09-03T20:25:16;1.63;;;1.00;;
9280;SDS011;4679;47.966;7.958;2022-09-03T20:27:30;0.90;;;0.90;;
9280;SDS011;4679;47.966;7.958;2022-09-03T20:29:59;1.10;;;1.00;;
9280;SDS011;4679;47.966;7.958;2022-09-03T20:32:05;1.03;;;0.93;;
9280;SDS011;4679;47.966;7.958;2022-09-03T20:34:14;0.90;;;0.90;;
9280;SDS011;4679;47.966;7.958;2022-09-03T20:36:28;2.47;;;1.00;;
9280;SDS011;4679;47.966;7.958;2022-09-03T20:38:52;1.47;;;1.00;;
9280;SDS011;4679;47.966;7.958;2022-09-03T20:41:09;0.80;;;0.60;;
9280;SDS011;4679;47.966;7.958;2022-09-03T20:43:21;2.43;;;0.90;;
9280;SDS011;4679;47.966;7.958;2022-09-03T20:45:39;1.97;;;0.70;;
9280;SDS011;4679;47.966;7.958;2022-09-03T20:48:00;0.77;;;0.77;;
9280;SDS011;4679;47.966;7.958;2022-09-03T20:50:12;1.77;;;0.83;;
9280;SDS011;4679;47.966;7.958;2022-09-03T20:52:26;3.47;;;0.90;;
9280;SDS011;4679;47.966;7.958;2022-09-03T20:54:40;1.33;;;0.93;;
9280;SDS011;4679;47.966;7.958;2022-09-03T20:56:55;0.80;;;0.80;;
9280;SDS011;4679;47.966;7.958;2022-09-03T20:59:08;0.80;;;0.80;;
9280;SDS011;4679;47.966;7.958;2022-09-03T21:01:21;0.80;;;0.70;;